Saint Louis, Missouri
Traffic Map
Current Weather Conditions
Saint Louis, Missouri
Clear
Clear
35°
Feels Like: 35°
Wind Chill: 35° Ceiling: Unl
Heat Index: 35° Visibility: 10mi
Dew Point: 26° Wind: 3mph
Humidity: 70% Direction: 330° (NNW)
Pressure: 30.17in Gusts: 0mph
Raw Report DataKCPS 252253Z 33003KT 10SM CLR 02/M03 A3017 RMK AO2 SLP219 T00171033
Traffic Incident Summary
Active as of:
Severity:
Category:
InformationThere was an issue retrieving the traffic information for this location. Please try a different location or try again shortly.
Advertisements
Track Severe Weather on mobile